sensor_id;sensor_type;location;lat;lon;timestamp;temperature;humidity
11848;DHT22;5983;49.966;8.052;2024-01-06T00:00:08;4.80;99.90
11848;DHT22;5983;49.966;8.052;2024-01-06T00:02:36;4.90;99.90
11848;DHT22;5983;49.966;8.052;2024-01-06T00:05:03;5.00;99.90
11848;DHT22;5983;49.966;8.052;2024-01-06T00:07:30;5.00;99.90
11848;DHT22;5983;49.966;8.052;2024-01-06T00:09:58;5.00;99.90
11848;DHT22;5983;49.966;8.052;2024-01-06T00:12:25;5.10;99.90
11848;DHT22;5983;49.966;8.052;2024-01-06T00:14:52;5.10;99.90
11848;DHT22;5983;49.966;8.052;2024-01-06T00:17:19;5.10;99.90
11848;DHT22;5983;49.966;8.052;2024-01-06T00:19:45;5.20;99.90
11848;DHT22;5983;49.966;8.052;2024-01-06T00:22:16;5.20;99.90
11848;DHT22;5983;49.966;8.052;2024-01-06T00:24:42;5.20;99.90
11848;DHT22;5983;49.966;8.052;2024-01-06T00:27:11;5.20;99.90
11848;DHT22;5983;49.966;8.052;2024-01-06T00:29:38;5.20;99.90
11848;DHT22;5983;49.966;8.052;2024-01-06T00:32:05;5.20;99.90
11848;DHT22;5983;49.966;8.052;2024-01-06T00:34:32;5.10;99.90
11848;DHT22;5983;49.966;8.052;2024-01-06T00:36:59;5.10;99.90
11848;DHT22;5983;49.966;8.052;2024-01-06T00:39:26;5.10;99.90
11848;DHT22;5983;49.966;8.052;2024-01-06T00:41:52;5.10;99.90
11848;DHT22;5983;49.966;8.052;2024-01-06T00:44:20;5.20;99.90
11848;DHT22;5983;49.966;8.052;2024-01-06T00:46:47;5.20;99.90
11848;DHT22;5983;49.966;8.052;2024-01-06T00:49:14;5.30;99.90
11848;DHT22;5983;49.966;8.052;2024-01-06T00:51:41;5.30;99.90
11848;DHT22;5983;49.966;8.052;2024-01-06T00:54:08;5.30;99.90
11848;DHT22;5983;49.966;8.052;2024-01-06T00:56:34;5.40;99.90
11848;DHT22;5983;49.966;8.052;2024-01-06T00:59:01;5.40;99.90
11848;DHT22;5983;49.966;8.052;2024-01-06T01:01:29;5.40;99.90
11848;DHT22;5983;49.966;8.052;2024-01-06T01:03:56;5.40;99.90
11848;DHT22;5983;49.966;8.052;2024-01-06T01:06:23;5.50;99.90
11848;DHT22;5983;49.966;8.052;2024-01-06T01:08:49;5.50;99.90
11848;DHT22;5983;49.966;8.052;2024-01-06T01:11:16;5.50;99.90
11848;DHT22;5983;49.966;8.052;2024-01-06T01:13:43;5.60;99.90
11848;DHT22;5983;49.966;8.052;2024-01-06T01:16:10;5.50;99.90
11848;DHT22;5983;49.966;8.052;2024-01-06T01:18:38;5.60;99.90
11848;DHT22;5983;49.966;8.052;2024-01-06T01:21:05;5.60;99.90
11848;DHT22;5983;49.966;8.052;2024-01-06T01:23:31;5.60;99.90
11848;DHT22;5983;49.966;8.052;2024-01-06T01:25:58;5.60;99.90
11848;DHT22;5983;49.966;8.052;2024-01-06T01:28:25;5.60;99.90
11848;DHT22;5983;49.966;8.052;2024-01-06T01:30:52;5.60;99.90
11848;DHT22;5983;49.966;8.052;2024-01-06T01:33:19;5.60;99.90
11848;DHT22;5983;49.966;8.052;2024-01-06T01:35:47;5.60;99.90
11848;DHT22;5983;49.966;8.052;2024-01-06T01:38:14;5.60;99.90
11848;DHT22;5983;49.966;8.052;2024-01-06T01:40:41;5.60;99.90
11848;DHT22;5983;49.966;8.052;2024-01-06T01:43:15;5.60;99.90
11848;DHT22;5983;49.966;8.052;2024-01-06T01:45:42;5.60;99.90
11848;DHT22;5983;49.966;8.052;2024-01-06T01:48:09;5.60;99.90
11848;DHT22;5983;49.966;8.052;2024-01-06T01:50:36;5.70;99.90
11848;DHT22;5983;49.966;8.052;2024-01-06T01:53:04;5.70;99.90
11848;DHT22;5983;49.966;8.052;2024-01-06T01:55:31;5.70;99.90
11848;DHT22;5983;49.966;8.052;2024-01-06T01:57:58;5.60;99.90
11848;DHT22;5983;49.966;8.052;2024-01-06T02:00:24;5.70;99.90
11848;DHT22;5983;49.966;8.052;2024-01-06T02:02:51;5.70;99.90
11848;DHT22;5983;49.966;8.052;2024-01-06T02:05:18;5.70;99.90
11848;DHT22;5983;49.966;8.052;2024-01-06T02:07:45;5.70;99.90
11848;DHT22;5983;49.966;8.052;2024-01-06T02:10:14;5.70;99.90
11848;DHT22;5983;49.966;8.052;2024-01-06T02:12:41;5.70;99.90
11848;DHT22;5983;49.966;8.052;2024-01-06T02:15:08;5.70;99.90
11848;DHT22;5983;49.966;8.052;2024-01-06T02:17:35;5.70;99.90
11848;DHT22;5983;49.966;8.052;2024-01-06T02:20:02;5.70;99.90
11848;DHT22;5983;49.966;8.052;2024-01-06T02:22:30;5.70;99.90
11848;DHT22;5983;49.966;8.052;2024-01-06T02:24:57;5.70;99.90
11848;DHT22;5983;49.966;8.052;2024-01-06T02:27:24;5.70;99.90
11848;DHT22;5983;49.966;8.052;2024-01-06T02:29:50;5.70;99.90
11848;DHT22;5983;49.966;8.052;2024-01-06T02:32:17;5.70;99.90
11848;DHT22;5983;49.966;8.052;2024-01-06T02:34:44;5.70;99.90
11848;DHT22;5983;49.966;8.052;2024-01-06T02:37:10;5.70;99.90
11848;DHT22;5983;49.966;8.052;2024-01-06T02:39:38;5.70;99.90
11848;DHT22;5983;49.966;8.052;2024-01-06T02:42:05;5.70;99.90
11848;DHT22;5983;49.966;8.052;2024-01-06T02:44:32;5.70;99.90
11848;DHT22;5983;49.966;8.052;2024-01-06T02:46:59;5.70;99.90
11848;DHT22;5983;49.966;8.052;2024-01-06T02:49:26;5.80;99.90
11848;DHT22;5983;49.966;8.052;2024-01-06T02:51:52;5.80;99.90
11848;DHT22;5983;49.966;8.052;2024-01-06T02:54:19;5.70;99.90
11848;DHT22;5983;49.966;8.052;2024-01-06T02:56:47;5.70;99.90
11848;DHT22;5983;49.966;8.052;2024-01-06T02:59:14;5.70;99.90
11848;DHT22;5983;49.966;8.052;2024-01-06T03:01:40;5.70;99.90
11848;DHT22;5983;49.966;8.052;2024-01-06T03:04:07;5.70;99.90
11848;DHT22;5983;49.966;8.052;2024-01-06T03:06:35;5.70;99.90
11848;DHT22;5983;49.966;8.052;2024-01-06T03:09:02;5.70;99.90
11848;DHT22;5983;49.966;8.052;2024-01-06T03:11:28;5.70;99.90
11848;DHT22;5983;49.966;8.052;2024-01-06T03:13:56;5.70;99.90
11848;DHT22;5983;49.966;8.052;2024-01-06T03:16:24;5.70;99.90
11848;DHT22;5983;49.966;8.052;2024-01-06T03:18:50;5.70;99.90
11848;DHT22;5983;49.966;8.052;2024-01-06T03:21:17;5.70;99.90
11848;DHT22;5983;49.966;8.052;2024-01-06T03:23:44;5.70;99.90
11848;DHT22;5983;49.966;8.052;2024-01-06T03:26:11;5.70;99.90
11848;DHT22;5983;49.966;8.052;2024-01-06T03:28:37;5.70;99.90
11848;DHT22;5983;49.966;8.052;2024-01-06T03:31:05;5.70;99.90
11848;DHT22;5983;49.966;8.052;2024-01-06T03:33:32;5.70;99.90
11848;DHT22;5983;49.966;8.052;2024-01-06T03:36:03;5.70;99.90
11848;DHT22;5983;49.966;8.052;2024-01-06T03:38:30;5.70;99.90
11848;DHT22;5983;49.966;8.052;2024-01-06T03:40:57;5.70;99.90
11848;DHT22;5983;49.966;8.052;2024-01-06T03:43:24;5.80;99.90
11848;DHT22;5983;49.966;8.052;2024-01-06T03:45:50;5.80;99.90
11848;DHT22;5983;49.966;8.052;2024-01-06T03:48:18;5.80;99.90
11848;DHT22;5983;49.966;8.052;2024-01-06T03:50:45;5.80;99.90
11848;DHT22;5983;49.966;8.052;2024-01-06T03:53:12;5.80;99.90
11848;DHT22;5983;49.966;8.052;2024-01-06T03:55:39;5.80;99.90
11848;DHT22;5983;49.966;8.052;2024-01-06T03:58:05;5.80;99.90
11848;DHT22;5983;49.966;8.052;2024-01-06T04:00:32;5.80;99.90
11848;DHT22;5983;49.966;8.052;2024-01-06T04:02:59;5.80;99.90
11848;DHT22;5983;49.966;8.052;2024-01-06T04:05:27;5.80;99.90
11848;DHT22;5983;49.966;8.052;2024-01-06T04:07:53;5.80;99.90
11848;DHT22;5983;49.966;8.052;2024-01-06T04:10:20;5.80;99.90
11848;DHT22;5983;49.966;8.052;2024-01-06T04:12:47;5.80;99.90
11848;DHT22;5983;49.966;8.052;2024-01-06T04:15:14;5.80;99.90
11848;DHT22;5983;49.966;8.052;2024-01-06T04:17:41;5.80;99.90
11848;DHT22;5983;49.966;8.052;2024-01-06T04:20:08;5.80;99.90
11848;DHT22;5983;49.966;8.052;2024-01-06T04:22:39;5.80;99.90
11848;DHT22;5983;49.966;8.052;2024-01-06T04:25:06;5.80;99.90
11848;DHT22;5983;49.966;8.052;2024-01-06T04:27:33;5.90;99.90
11848;DHT22;5983;49.966;8.052;2024-01-06T04:30:00;5.90;99.90
11848;DHT22;5983;49.966;8.052;2024-01-06T04:32:27;5.80;99.90
11848;DHT22;5983;49.966;8.052;2024-01-06T04:34:54;5.80;99.90
11848;DHT22;5983;49.966;8.052;2024-01-06T04:37:22;5.80;99.90
11848;DHT22;5983;49.966;8.052;2024-01-06T04:39:50;5.80;99.90
11848;DHT22;5983;49.966;8.052;2024-01-06T04:42:17;5.80;99.90
11848;DHT22;5983;49.966;8.052;2024-01-06T04:44:45;5.90;99.90
11848;DHT22;5983;49.966;8.052;2024-01-06T04:47:11;5.90;99.90
11848;DHT22;5983;49.966;8.052;2024-01-06T04:49:38;5.90;99.90
11848;DHT22;5983;49.966;8.052;2024-01-06T04:52:05;5.90;99.90
11848;DHT22;5983;49.966;8.052;2024-01-06T04:54:32;5.90;99.90
11848;DHT22;5983;49.966;8.052;2024-01-06T04:57:00;5.90;99.90
11848;DHT22;5983;49.966;8.052;2024-01-06T04:59:26;5.90;99.90
11848;DHT22;5983;49.966;8.052;2024-01-06T05:01:53;5.90;99.90
11848;DHT22;5983;49.966;8.052;2024-01-06T05:04:20;5.90;99.90
11848;DHT22;5983;49.966;8.052;2024-01-06T05:06:47;5.90;99.90
11848;DHT22;5983;49.966;8.052;2024-01-06T05:09:14;5.90;99.90
11848;DHT22;5983;49.966;8.052;2024-01-06T05:11:43;5.90;99.90
11848;DHT22;5983;49.966;8.052;2024-01-06T05:14:11;5.90;99.90
11848;DHT22;5983;49.966;8.052;2024-01-06T05:16:38;5.90;99.90
11848;DHT22;5983;49.966;8.052;2024-01-06T05:19:05;5.90;99.90
11848;DHT22;5983;49.966;8.052;2024-01-06T05:21:31;5.90;99.90
11848;DHT22;5983;49.966;8.052;2024-01-06T05:23:58;5.90;99.90
11848;DHT22;5983;49.966;8.052;2024-01-06T05:26:25;5.80;99.90
11848;DHT22;5983;49.966;8.052;2024-01-06T05:28:52;5.80;99.90
11848;DHT22;5983;49.966;8.052;2024-01-06T05:31:20;5.80;99.90
11848;DHT22;5983;49.966;8.052;2024-01-06T05:33:47;5.80;99.90
11848;DHT22;5983;49.966;8.052;2024-01-06T05:36:13;5.80;99.90
11848;DHT22;5983;49.966;8.052;2024-01-06T05:38:44;5.80;99.90
11848;DHT22;5983;49.966;8.052;2024-01-06T05:41:10;5.80;99.90
11848;DHT22;5983;49.966;8.052;2024-01-06T05:43:37;5.80;99.90
11848;DHT22;5983;49.966;8.052;2024-01-06T05:46:04;5.80;99.90
11848;DHT22;5983;49.966;8.052;2024-01-06T05:48:32;5.80;99.90
11848;DHT22;5983;49.966;8.052;2024-01-06T05:50:59;5.80;99.90
11848;DHT22;5983;49.966;8.052;2024-01-06T05:53:26;5.80;99.90
11848;DHT22;5983;49.966;8.052;2024-01-06T05:55:52;5.70;99.90
11848;DHT22;5983;49.966;8.052;2024-01-06T05:58:19;5.70;99.90
11848;DHT22;5983;49.966;8.052;2024-01-06T06:00:47;5.70;99.90
11848;DHT22;5983;49.966;8.052;2024-01-06T06:03:14;5.70;99.90
11848;DHT22;5983;49.966;8.052;2024-01-06T06:05:42;5.70;99.90
11848;DHT22;5983;49.966;8.052;2024-01-06T06:08:10;5.70;99.90
11848;DHT22;5983;49.966;8.052;2024-01-06T06:10:36;5.70;99.90
11848;DHT22;5983;49.966;8.052;2024-01-06T06:13:17;5.70;99.90
11848;DHT22;5983;49.966;8.052;2024-01-06T06:15:43;5.70;99.90
11848;DHT22;5983;49.966;8.052;2024-01-06T06:18:10;5.70;99.90
11848;DHT22;5983;49.966;8.052;2024-01-06T06:20:37;5.70;99.90
11848;DHT22;5983;49.966;8.052;2024-01-06T06:23:05;5.70;99.90
11848;DHT22;5983;49.966;8.052;2024-01-06T06:25:32;5.70;99.90
11848;DHT22;5983;49.966;8.052;2024-01-06T06:27:59;5.60;99.90
11848;DHT22;5983;49.966;8.052;2024-01-06T06:30:25;5.60;99.90
11848;DHT22;5983;49.966;8.052;2024-01-06T06:32:52;5.50;99.90
11848;DHT22;5983;49.966;8.052;2024-01-06T06:35:19;5.60;99.90
11848;DHT22;5983;49.966;8.052;2024-01-06T06:37:46;5.60;99.90
11848;DHT22;5983;49.966;8.052;2024-01-06T06:40:14;5.50;99.90
11848;DHT22;5983;49.966;8.052;2024-01-06T06:42:41;5.60;99.90
11848;DHT22;5983;49.966;8.052;2024-01-06T06:45:08;5.60;99.90
11848;DHT22;5983;49.966;8.052;2024-01-06T06:47:37;5.60;99.90
11848;DHT22;5983;49.966;8.052;2024-01-06T06:50:04;5.60;99.90
11848;DHT22;5983;49.966;8.052;2024-01-06T06:52:31;5.70;99.90
11848;DHT22;5983;49.966;8.052;2024-01-06T06:54:57;5.70;99.90
11848;DHT22;5983;49.966;8.052;2024-01-06T06:57:25;5.60;99.90
11848;DHT22;5983;49.966;8.052;2024-01-06T06:59:52;5.60;99.90
11848;DHT22;5983;49.966;8.052;2024-01-06T07:02:19;5.60;99.90
11848;DHT22;5983;49.966;8.052;2024-01-06T07:04:46;5.60;99.90
11848;DHT22;5983;49.966;8.052;2024-01-06T07:07:12;5.60;99.90
11848;DHT22;5983;49.966;8.052;2024-01-06T07:09:40;5.70;99.90
11848;DHT22;5983;49.966;8.052;2024-01-06T07:12:07;5.70;99.90
11848;DHT22;5983;49.966;8.052;2024-01-06T07:14:35;5.70;99.90
11848;DHT22;5983;49.966;8.052;2024-01-06T07:17:02;5.70;99.90
11848;DHT22;5983;49.966;8.052;2024-01-06T07:19:29;5.80;99.90
11848;DHT22;5983;49.966;8.052;2024-01-06T07:21:57;5.70;99.90
11848;DHT22;5983;49.966;8.052;2024-01-06T07:24:24;5.70;99.90
11848;DHT22;5983;49.966;8.052;2024-01-06T07:26:52;5.80;99.90
11848;DHT22;5983;49.966;8.052;2024-01-06T07:29:18;5.70;99.90
11848;DHT22;5983;49.966;8.052;2024-01-06T07:31:46;5.80;99.90
11848;DHT22;5983;49.966;8.052;2024-01-06T07:34:13;5.80;99.90
11848;DHT22;5983;49.966;8.052;2024-01-06T07:36:41;5.80;99.90
11848;DHT22;5983;49.966;8.052;2024-01-06T07:39:07;5.80;99.90
11848;DHT22;5983;49.966;8.052;2024-01-06T07:41:34;5.80;99.90
11848;DHT22;5983;49.966;8.052;2024-01-06T07:44:01;5.80;99.90
11848;DHT22;5983;49.966;8.052;2024-01-06T07:46:28;5.80;99.90
11848;DHT22;5983;49.966;8.052;2024-01-06T07:48:57;5.80;99.90
11848;DHT22;5983;49.966;8.052;2024-01-06T07:51:24;5.80;99.90
11848;DHT22;5983;49.966;8.052;2024-01-06T07:53:51;5.90;99.90
11848;DHT22;5983;49.966;8.052;2024-01-06T07:56:18;5.80;99.90
11848;DHT22;5983;49.966;8.052;2024-01-06T07:58:44;5.90;99.90
11848;DHT22;5983;49.966;8.052;2024-01-06T08:01:11;5.90;99.90
11848;DHT22;5983;49.966;8.052;2024-01-06T08:03:38;5.90;99.90
11848;DHT22;5983;49.966;8.052;2024-01-06T08:06:06;5.90;99.90
11848;DHT22;5983;49.966;8.052;2024-01-06T08:08:33;5.90;99.90
11848;DHT22;5983;49.966;8.052;2024-01-06T08:11:00;6.00;99.90
11848;DHT22;5983;49.966;8.052;2024-01-06T08:13:28;6.00;99.90
11848;DHT22;5983;49.966;8.052;2024-01-06T08:15:54;6.00;99.90
11848;DHT22;5983;49.966;8.052;2024-01-06T08:18:21;6.00;99.90
11848;DHT22;5983;49.966;8.052;2024-01-06T08:20:48;6.10;99.90
11848;DHT22;5983;49.966;8.052;2024-01-06T08:23:16;6.10;99.90
11848;DHT22;5983;49.966;8.052;2024-01-06T08:25:44;6.10;99.90
11848;DHT22;5983;49.966;8.052;2024-01-06T08:28:12;6.20;99.90
11848;DHT22;5983;49.966;8.052;2024-01-06T08:30:40;6.20;99.90
11848;DHT22;5983;49.966;8.052;2024-01-06T08:33:08;6.20;99.90
11848;DHT22;5983;49.966;8.052;2024-01-06T08:35:35;6.20;99.90
11848;DHT22;5983;49.966;8.052;2024-01-06T08:38:05;6.20;99.90
11848;DHT22;5983;49.966;8.052;2024-01-06T08:40:33;6.20;99.90
11848;DHT22;5983;49.966;8.052;2024-01-06T08:43:00;6.20;99.90
11848;DHT22;5983;49.966;8.052;2024-01-06T08:45:27;6.20;99.90
11848;DHT22;5983;49.966;8.052;2024-01-06T08:47:54;6.20;99.90
11848;DHT22;5983;49.966;8.052;2024-01-06T08:50:20;6.30;99.90
11848;DHT22;5983;49.966;8.052;2024-01-06T08:52:47;6.30;99.90
11848;DHT22;5983;49.966;8.052;2024-01-06T08:55:14;6.30;99.90
11848;DHT22;5983;49.966;8.052;2024-01-06T08:57:43;6.30;99.90
11848;DHT22;5983;49.966;8.052;2024-01-06T09:00:10;6.40;99.90
11848;DHT22;5983;49.966;8.052;2024-01-06T09:02:37;6.40;99.90
11848;DHT22;5983;49.966;8.052;2024-01-06T09:05:04;6.40;99.90
11848;DHT22;5983;49.966;8.052;2024-01-06T09:07:32;6.40;99.90
11848;DHT22;5983;49.966;8.052;2024-01-06T09:09:58;6.40;99.90
11848;DHT22;5983;49.966;8.052;2024-01-06T09:12:25;6.40;99.90
11848;DHT22;5983;49.966;8.052;2024-01-06T09:14:53;6.50;99.90
11848;DHT22;5983;49.966;8.052;2024-01-06T09:17:20;6.50;99.90
11848;DHT22;5983;49.966;8.052;2024-01-06T09:19:47;6.50;99.90
11848;DHT22;5983;49.966;8.052;2024-01-06T09:22:14;6.50;99.90
11848;DHT22;5983;49.966;8.052;2024-01-06T09:24:41;6.50;99.90
11848;DHT22;5983;49.966;8.052;2024-01-06T09:27:08;6.60;99.90
11848;DHT22;5983;49.966;8.052;2024-01-06T09:29:34;6.60;99.90
11848;DHT22;5983;49.966;8.052;2024-01-06T09:32:03;6.60;99.90
11848;DHT22;5983;49.966;8.052;2024-01-06T09:34:30;6.60;99.90
11848;DHT22;5983;49.966;8.052;2024-01-06T09:36:57;6.60;99.90
11848;DHT22;5983;49.966;8.052;2024-01-06T09:39:23;6.60;99.90
11848;DHT22;5983;49.966;8.052;2024-01-06T09:41:50;6.70;99.90
11848;DHT22;5983;49.966;8.052;2024-01-06T09:44:17;6.60;99.90
11848;DHT22;5983;49.966;8.052;2024-01-06T09:46:44;6.70;99.90
11848;DHT22;5983;49.966;8.052;2024-01-06T09:49:12;6.70;99.90
11848;DHT22;5983;49.966;8.052;2024-01-06T09:51:40;6.80;99.90
11848;DHT22;5983;49.966;8.052;2024-01-06T09:54:08;6.80;99.90
11848;DHT22;5983;49.966;8.052;2024-01-06T09:56:36;6.80;99.90
11848;DHT22;5983;49.966;8.052;2024-01-06T09:59:03;6.80;99.90
11848;DHT22;5983;49.966;8.052;2024-01-06T10:01:30;6.90;99.90
11848;DHT22;5983;49.966;8.052;2024-01-06T10:03:57;6.80;99.90
11848;DHT22;5983;49.966;8.052;2024-01-06T10:06:25;6.90;99.90
11848;DHT22;5983;49.966;8.052;2024-01-06T10:08:52;6.90;99.90
11848;DHT22;5983;49.966;8.052;2024-01-06T10:11:19;7.00;99.90
11848;DHT22;5983;49.966;8.052;2024-01-06T10:13:48;7.00;99.90
11848;DHT22;5983;49.966;8.052;2024-01-06T10:16:16;7.00;99.90
11848;DHT22;5983;49.966;8.052;2024-01-06T10:18:43;7.10;99.90
11848;DHT22;5983;49.966;8.052;2024-01-06T10:21:10;7.20;99.90
11848;DHT22;5983;49.966;8.052;2024-01-06T10:23:38;7.20;99.90
11848;DHT22;5983;49.966;8.052;2024-01-06T10:26:08;7.30;99.90
11848;DHT22;5983;49.966;8.052;2024-01-06T10:28:38;7.30;99.90
11848;DHT22;5983;49.966;8.052;2024-01-06T10:31:07;7.40;99.90
11848;DHT22;5983;49.966;8.052;2024-01-06T10:33:34;7.40;99.90
11848;DHT22;5983;49.966;8.052;2024-01-06T10:36:02;7.40;99.90
11848;DHT22;5983;49.966;8.052;2024-01-06T10:38:30;7.40;99.90
11848;DHT22;5983;49.966;8.052;2024-01-06T10:40:58;7.40;99.90
11848;DHT22;5983;49.966;8.052;2024-01-06T10:43:28;7.50;99.90
11848;DHT22;5983;49.966;8.052;2024-01-06T10:45:55;7.50;99.90
11848;DHT22;5983;49.966;8.052;2024-01-06T10:48:24;7.50;99.90
11848;DHT22;5983;49.966;8.052;2024-01-06T10:50:51;7.60;99.90
11848;DHT22;5983;49.966;8.052;2024-01-06T10:53:20;7.60;99.90
11848;DHT22;5983;49.966;8.052;2024-01-06T10:55:48;7.60;99.90
11848;DHT22;5983;49.966;8.052;2024-01-06T10:58:17;7.60;99.90
11848;DHT22;5983;49.966;8.052;2024-01-06T11:00:44;7.70;99.90
11848;DHT22;5983;49.966;8.052;2024-01-06T11:03:11;7.70;99.90
11848;DHT22;5983;49.966;8.052;2024-01-06T11:05:39;7.70;99.90
11848;DHT22;5983;49.966;8.052;2024-01-06T11:08:07;7.70;99.90
11848;DHT22;5983;49.966;8.052;2024-01-06T11:10:35;7.60;99.90
11848;DHT22;5983;49.966;8.052;2024-01-06T11:13:10;7.70;99.90
11848;DHT22;5983;49.966;8.052;2024-01-06T11:15:42;7.70;99.90
11848;DHT22;5983;49.966;8.052;2024-01-06T11:18:29;7.70;99.90
11848;DHT22;5983;49.966;8.052;2024-01-06T11:21:14;7.70;99.90
11848;DHT22;5983;49.966;8.052;2024-01-06T11:23:44;7.70;99.90
11848;DHT22;5983;49.966;8.052;2024-01-06T11:26:11;7.70;99.90
11848;DHT22;5983;49.966;8.052;2024-01-06T11:28:43;7.70;99.90
11848;DHT22;5983;49.966;8.052;2024-01-06T11:31:12;7.70;99.90
11848;DHT22;5983;49.966;8.052;2024-01-06T11:33:42;7.70;99.90
11848;DHT22;5983;49.966;8.052;2024-01-06T11:36:09;7.70;99.90
11848;DHT22;5983;49.966;8.052;2024-01-06T11:38:39;7.70;99.90
11848;DHT22;5983;49.966;8.052;2024-01-06T11:41:06;7.70;99.90
11848;DHT22;5983;49.966;8.052;2024-01-06T11:43:37;7.80;99.90
11848;DHT22;5983;49.966;8.052;2024-01-06T11:46:04;7.80;99.90
11848;DHT22;5983;49.966;8.052;2024-01-06T11:48:34;7.80;99.90
11848;DHT22;5983;49.966;8.052;2024-01-06T11:51:02;7.90;99.90
11848;DHT22;5983;49.966;8.052;2024-01-06T11:53:29;7.90;99.90
11848;DHT22;5983;49.966;8.052;2024-01-06T11:55:56;7.90;99.90
11848;DHT22;5983;49.966;8.052;2024-01-06T11:58:23;8.00;99.90
11848;DHT22;5983;49.966;8.052;2024-01-06T12:00:56;8.00;99.90
11848;DHT22;5983;49.966;8.052;2024-01-06T12:03:23;8.00;99.90
11848;DHT22;5983;49.966;8.052;2024-01-06T12:06:02;8.10;99.90
11848;DHT22;5983;49.966;8.052;2024-01-06T12:08:29;8.10;99.90
11848;DHT22;5983;49.966;8.052;2024-01-06T12:11:02;8.10;99.90
11848;DHT22;5983;49.966;8.052;2024-01-06T12:13:29;8.10;99.90
11848;DHT22;5983;49.966;8.052;2024-01-06T17:09:13;6.10;99.90
11848;DHT22;5983;49.966;8.052;2024-01-06T17:11:40;6.10;99.90
11848;DHT22;5983;49.966;8.052;2024-01-06T17:14:07;6.10;99.90
11848;DHT22;5983;49.966;8.052;2024-01-06T17:16:34;6.10;99.90
11848;DHT22;5983;49.966;8.052;2024-01-06T17:19:01;6.10;99.90
11848;DHT22;5983;49.966;8.052;2024-01-06T17:21:28;6.10;99.90
11848;DHT22;5983;49.966;8.052;2024-01-06T17:23:55;6.10;99.90
11848;DHT22;5983;49.966;8.052;2024-01-06T17:26:23;6.10;99.90
11848;DHT22;5983;49.966;8.052;2024-01-06T17:28:50;6.10;99.90
11848;DHT22;5983;49.966;8.052;2024-01-06T17:31:17;6.10;99.90
11848;DHT22;5983;49.966;8.052;2024-01-06T17:33:44;6.10;99.90
11848;DHT22;5983;49.966;8.052;2024-01-06T17:36:11;6.10;99.90
11848;DHT22;5983;49.966;8.052;2024-01-06T17:38:39;6.10;99.90
11848;DHT22;5983;49.966;8.052;2024-01-06T17:41:06;6.10;99.90
11848;DHT22;5983;49.966;8.052;2024-01-06T17:43:34;6.10;99.90
11848;DHT22;5983;49.966;8.052;2024-01-06T17:49:23;6.10;99.90
11848;DHT22;5983;49.966;8.052;2024-01-06T17:51:50;6.10;99.90
11848;DHT22;5983;49.966;8.052;2024-01-06T17:54:17;6.10;99.90
11848;DHT22;5983;49.966;8.052;2024-01-06T17:56:45;6.10;99.90
11848;DHT22;5983;49.966;8.052;2024-01-06T17:59:13;6.10;99.90
11848;DHT22;5983;49.966;8.052;2024-01-06T18:01:40;6.10;99.90
11848;DHT22;5983;49.966;8.052;2024-01-06T18:04:10;6.10;99.90
11848;DHT22;5983;49.966;8.052;2024-01-06T18:06:37;6.10;99.90
11848;DHT22;5983;49.966;8.052;2024-01-06T18:09:04;6.10;99.90
11848;DHT22;5983;49.966;8.052;2024-01-06T18:11:31;6.10;99.90
11848;DHT22;5983;49.966;8.052;2024-01-06T18:13:58;6.10;99.90
11848;DHT22;5983;49.966;8.052;2024-01-06T18:16:26;6.10;99.90
11848;DHT22;5983;49.966;8.052;2024-01-06T18:18:53;6.10;99.90
11848;DHT22;5983;49.966;8.052;2024-01-06T18:21:20;6.10;99.90
11848;DHT22;5983;49.966;8.052;2024-01-06T18:23:46;6.10;99.90
11848;DHT22;5983;49.966;8.052;2024-01-06T18:26:13;6.10;99.90
11848;DHT22;5983;49.966;8.052;2024-01-06T18:28:41;6.10;99.90
11848;DHT22;5983;49.966;8.052;2024-01-06T18:31:08;6.10;99.90
11848;DHT22;5983;49.966;8.052;2024-01-06T18:33:36;6.10;99.90
11848;DHT22;5983;49.966;8.052;2024-01-06T18:36:04;6.10;99.90
11848;DHT22;5983;49.966;8.052;2024-01-06T18:38:32;6.10;99.90
11848;DHT22;5983;49.966;8.052;2024-01-06T18:41:00;6.10;99.90
11848;DHT22;5983;49.966;8.052;2024-01-06T18:43:27;6.10;99.90
11848;DHT22;5983;49.966;8.052;2024-01-06T18:45:54;6.10;99.90
11848;DHT22;5983;49.966;8.052;2024-01-06T18:48:20;6.10;99.90
11848;DHT22;5983;49.966;8.052;2024-01-06T18:50:49;6.10;99.90
11848;DHT22;5983;49.966;8.052;2024-01-06T18:53:15;6.10;99.90
11848;DHT22;5983;49.966;8.052;2024-01-06T18:55:42;6.10;99.90
11848;DHT22;5983;49.966;8.052;2024-01-06T18:58:09;6.10;99.90
11848;DHT22;5983;49.966;8.052;2024-01-06T19:00:36;6.20;99.90
11848;DHT22;5983;49.966;8.052;2024-01-06T19:03:03;6.20;99.90
11848;DHT22;5983;49.966;8.052;2024-01-06T19:05:30;6.20;99.90
11848;DHT22;5983;49.966;8.052;2024-01-06T19:07:59;6.20;99.90
11848;DHT22;5983;49.966;8.052;2024-01-06T19:10:26;6.20;99.90
11848;DHT22;5983;49.966;8.052;2024-01-06T19:12:53;6.20;99.90
11848;DHT22;5983;49.966;8.052;2024-01-06T19:15:20;6.20;99.90
11848;DHT22;5983;49.966;8.052;2024-01-06T19:17:47;6.20;99.90
11848;DHT22;5983;49.966;8.052;2024-01-06T19:20:13;6.20;99.90
11848;DHT22;5983;49.966;8.052;2024-01-06T19:22:41;6.30;99.90
11848;DHT22;5983;49.966;8.052;2024-01-06T19:25:09;6.20;99.90
11848;DHT22;5983;49.966;8.052;2024-01-06T19:27:36;6.30;99.90
11848;DHT22;5983;49.966;8.052;2024-01-06T19:33:05;6.30;99.90
11848;DHT22;5983;49.966;8.052;2024-01-06T19:35:33;6.30;99.90
11848;DHT22;5983;49.966;8.052;2024-01-06T19:38:00;6.30;99.90
11848;DHT22;5983;49.966;8.052;2024-01-06T19:40:28;6.30;99.90
11848;DHT22;5983;49.966;8.052;2024-01-06T19:42:57;6.30;99.90
11848;DHT22;5983;49.966;8.052;2024-01-06T19:45:26;6.30;99.90
11848;DHT22;5983;49.966;8.052;2024-01-06T19:47:53;6.30;99.90
11848;DHT22;5983;49.966;8.052;2024-01-06T19:50:20;6.30;99.90
11848;DHT22;5983;49.966;8.052;2024-01-06T19:52:48;6.40;99.90
11848;DHT22;5983;49.966;8.052;2024-01-06T19:55:15;6.30;99.90
11848;DHT22;5983;49.966;8.052;2024-01-06T19:57:43;6.30;99.90
11848;DHT22;5983;49.966;8.052;2024-01-06T20:00:10;6.30;99.90
11848;DHT22;5983;49.966;8.052;2024-01-06T20:02:37;6.30;99.90
11848;DHT22;5983;49.966;8.052;2024-01-06T20:05:05;6.30;99.90
11848;DHT22;5983;49.966;8.052;2024-01-06T20:07:32;6.40;99.90
11848;DHT22;5983;49.966;8.052;2024-01-06T20:09:59;6.40;99.90
11848;DHT22;5983;49.966;8.052;2024-01-06T20:12:26;6.40;99.90
11848;DHT22;5983;49.966;8.052;2024-01-06T20:14:54;6.40;99.90
11848;DHT22;5983;49.966;8.052;2024-01-06T20:17:22;6.30;99.90
11848;DHT22;5983;49.966;8.052;2024-01-06T20:19:49;6.30;99.90
11848;DHT22;5983;49.966;8.052;2024-01-06T20:22:16;6.30;99.90
11848;DHT22;5983;49.966;8.052;2024-01-06T20:24:43;6.30;99.90
11848;DHT22;5983;49.966;8.052;2024-01-06T20:27:10;6.30;99.90
11848;DHT22;5983;49.966;8.052;2024-01-06T20:29:37;6.30;99.90
11848;DHT22;5983;49.966;8.052;2024-01-06T20:32:05;6.30;99.90
11848;DHT22;5983;49.966;8.052;2024-01-06T20:34:32;6.30;99.90
11848;DHT22;5983;49.966;8.052;2024-01-06T20:36:59;6.30;99.90
11848;DHT22;5983;49.966;8.052;2024-01-06T20:39:26;6.30;99.90
11848;DHT22;5983;49.966;8.052;2024-01-06T20:41:52;6.20;99.90
11848;DHT22;5983;49.966;8.052;2024-01-06T20:44:19;6.30;99.90
11848;DHT22;5983;49.966;8.052;2024-01-06T20:46:46;6.30;99.90
11848;DHT22;5983;49.966;8.052;2024-01-06T20:49:17;6.20;99.90
11848;DHT22;5983;49.966;8.052;2024-01-06T20:51:43;6.20;99.90
11848;DHT22;5983;49.966;8.052;2024-01-06T20:54:11;6.20;99.90
11848;DHT22;5983;49.966;8.052;2024-01-06T20:56:38;6.20;99.90
11848;DHT22;5983;49.966;8.052;2024-01-06T20:59:08;6.20;99.90
11848;DHT22;5983;49.966;8.052;2024-01-06T21:01:35;6.20;99.90